createdAt,value
2019-01-21T00:01:36.999Z,5.87
2019-01-21T00:04:06.168Z,6.90
2019-01-21T00:06:35.920Z,5.43
2019-01-21T00:09:08.089Z,6.47
2019-01-21T00:11:37.832Z,6.87
2019-01-21T00:14:07.219Z,7.60
2019-01-21T00:16:36.294Z,7.00
2019-01-21T00:19:05.272Z,7.20
2019-01-21T00:21:34.247Z,8.33
2019-01-21T00:24:03.022Z,8.27
2019-01-21T00:26:32.055Z,7.80
2019-01-21T00:29:01.077Z,7.90
2019-01-21T00:31:29.838Z,7.67
2019-01-21T00:33:58.992Z,6.70
2019-01-21T00:36:27.714Z,7.60
2019-01-21T00:38:56.484Z,7.93
2019-01-21T00:41:25.662Z,7.73
2019-01-21T00:43:54.634Z,8.50
2019-01-21T00:46:23.394Z,7.63
2019-01-21T00:48:52.113Z,9.10
2019-01-21T00:51:22.358Z,8.67
2019-01-21T00:53:51.136Z,9.27
2019-01-21T00:56:20.322Z,8.37
2019-01-21T00:58:49.374Z,8.47
2019-01-21T01:01:19.239Z,8.10
2019-01-21T01:03:47.925Z,8.30
2019-01-21T01:06:16.716Z,9.27
2019-01-21T01:08:45.743Z,8.87
2019-01-21T01:11:14.847Z,9.43
2019-01-21T01:13:43.652Z,9.53
2019-01-21T01:16:12.339Z,9.50
2019-01-21T01:18:41.699Z,9.37
2019-01-21T01:21:10.455Z,9.87
2019-01-21T01:23:39.292Z,8.40
2019-01-21T01:26:08.344Z,10.13
2019-01-21T01:28:37.395Z,9.07
2019-01-21T01:31:06.246Z,9.20
2019-01-21T01:33:35.007Z,9.20
2019-01-21T01:36:03.803Z,9.10
2019-01-21T01:38:32.591Z,8.10
2019-01-21T01:41:01.375Z,9.43
2019-01-21T01:43:30.378Z,9.40
2019-01-21T01:45:59.162Z,9.13
2019-01-21T01:48:28.143Z,9.23
2019-01-21T01:50:57.092Z,9.20
2019-01-21T01:53:25.922Z,9.27
2019-01-21T01:55:54.616Z,10.10
2019-01-21T01:58:23.293Z,9.73
2019-01-21T02:00:51.986Z,8.73
2019-01-21T02:03:20.783Z,8.60
2019-01-21T02:05:49.721Z,9.60
2019-01-21T02:08:18.463Z,8.40
2019-01-21T02:10:47.178Z,10.13
2019-01-21T02:13:15.927Z,8.03
2019-01-21T02:15:44.636Z,9.63
2019-01-21T02:18:13.411Z,9.00
2019-01-21T02:20:44.068Z,8.60
2019-01-21T02:23:16.907Z,8.20
2019-01-21T02:25:54.446Z,8.83
2019-01-21T02:29:10.527Z,9.77
2019-01-21T02:32:22.165Z,9.10
2019-01-21T02:35:04.790Z,8.30
2019-01-21T02:38:09.443Z,9.00
2019-01-21T02:41:10.736Z,8.10
2019-01-21T02:44:14.160Z,7.43
2019-01-21T02:47:11.699Z,7.00
2019-01-21T02:50:10.366Z,7.10
2019-01-21T02:53:14.443Z,8.33
2019-01-21T02:56:30.812Z,8.03
2019-01-21T02:59:37.048Z,9.83
2019-01-21T03:02:34.266Z,7.87
2019-01-21T03:05:41.574Z,8.43
2019-01-21T03:09:05.854Z,7.77
2019-01-21T03:12:22.314Z,7.93
2019-01-21T03:15:26.728Z,7.40
2019-01-21T03:18:21.897Z,8.87
2019-01-21T03:21:04.121Z,8.20
2019-01-21T03:24:06.779Z,8.27
2019-01-21T03:26:59.626Z,9.30
2019-01-21T03:30:02.237Z,7.30
2019-01-21T03:32:54.546Z,7.50
2019-01-21T03:36:04.188Z,9.00
2019-01-21T03:38:58.305Z,8.87
2019-01-21T03:41:58.549Z,9.33
2019-01-21T03:44:35.386Z,8.30
2019-01-21T03:47:30.645Z,8.97
2019-01-21T03:50:21.360Z,8.63
2019-01-21T03:53:40.385Z,9.53
2019-01-21T03:56:14.631Z,9.37
2019-01-21T03:59:05.878Z,8.47
2019-01-21T04:02:14.230Z,9.10
2019-01-21T04:05:11.179Z,8.80
2019-01-21T04:08:05.519Z,9.90
2019-01-21T04:11:18.323Z,9.80
2019-01-21T04:14:37.263Z,8.47
2019-01-21T04:17:36.381Z,10.47
2019-01-21T04:20:36.671Z,10.03
2019-01-21T04:23:48.105Z,9.87
2019-01-21T04:26:49.114Z,10.00
2019-01-21T04:30:03.668Z,11.53
2019-01-21T04:33:20.656Z,10.67
2019-01-21T04:36:05.375Z,10.13
2019-01-21T04:38:59.883Z,11.67
2019-01-21T04:42:06.052Z,11.33
2019-01-21T04:45:16.106Z,10.97
2019-01-21T04:48:41.787Z,10.67
2019-01-21T04:51:46.988Z,10.60
2019-01-21T04:54:51.374Z,11.77
2019-01-21T04:58:13.581Z,10.47
2019-01-21T05:01:29.087Z,11.77
2019-01-21T05:04:20.756Z,8.80
2019-01-21T05:07:30.974Z,11.13
2019-01-21T05:10:31.618Z,11.20
2019-01-21T05:13:13.579Z,10.13
2019-01-21T05:16:25.654Z,11.23
2019-01-21T05:19:34.502Z,10.90
2019-01-21T05:22:33.158Z,10.37
2019-01-21T05:25:30.937Z,9.97
2019-01-21T05:28:24.483Z,10.53
2019-01-21T05:31:11.702Z,11.87
2019-01-21T05:34:21.478Z,10.40
2019-01-21T05:37:12.611Z,11.67
2019-01-21T05:40:32.727Z,11.37
2019-01-21T05:43:40.568Z,11.00
2019-01-21T05:46:46.455Z,8.43
2019-01-21T05:50:14.857Z,10.13
2019-01-21T05:53:21.611Z,10.27
2019-01-21T05:56:39.502Z,10.97
2019-01-21T05:59:49.692Z,11.30
2019-01-21T06:02:55.740Z,10.87
2019-01-21T06:06:04.853Z,10.90
2019-01-21T06:09:16.817Z,13.17
2019-01-21T06:12:14.448Z,11.20
2019-01-21T06:15:21.480Z,10.60
2019-01-21T06:18:08.335Z,10.87
2019-01-21T06:21:16.630Z,11.77
2019-01-21T06:24:23.074Z,12.67
2019-01-21T06:27:30.123Z,11.90
2019-01-21T06:30:29.426Z,12.43
2019-01-21T06:33:40.335Z,11.97
2019-01-21T06:36:28.232Z,9.90
2019-01-21T06:39:43.542Z,10.37
2019-01-21T06:43:06.086Z,11.43
2019-01-21T06:46:17.314Z,9.63
2019-01-21T06:49:32.506Z,10.37
2019-01-21T06:52:29.934Z,9.93
2019-01-21T06:55:38.284Z,12.33
2019-01-21T06:58:47.715Z,10.50
2019-01-21T07:01:55.997Z,12.87
2019-01-21T07:04:52.747Z,13.93
2019-01-21T07:07:55.426Z,12.70
2019-01-21T07:10:55.540Z,13.93
2019-01-21T07:13:53.079Z,13.30
2019-01-21T07:16:42.341Z,14.47
2019-01-21T07:19:40.126Z,11.13
2019-01-21T07:22:56.666Z,10.03
2019-01-21T07:26:04.471Z,14.13
2019-01-21T07:29:27.847Z,14.50
2019-01-21T07:32:15.158Z,12.57
2019-01-21T07:35:31.545Z,13.13
2019-01-21T07:38:28.826Z,13.20
2019-01-21T07:41:23.714Z,13.73
2019-01-21T07:44:35.320Z,13.30
2019-01-21T07:47:48.734Z,13.00
2019-01-21T07:50:38.738Z,12.73
2019-01-21T07:53:47.997Z,11.90
2019-01-21T07:56:52.995Z,13.13
2019-01-21T07:59:33.832Z,13.10
2019-01-21T08:03:09.320Z,13.87
2019-01-21T08:05:55.141Z,13.10
2019-01-21T08:08:57.707Z,11.53
2019-01-21T08:12:10.974Z,11.37
2019-01-21T08:14:46.876Z,10.47
2019-01-21T08:18:10.110Z,11.17
2019-01-21T08:20:46.850Z,12.47
2019-01-21T08:23:53.077Z,12.57
2019-01-21T08:26:27.318Z,13.97
2019-01-21T08:29:31.326Z,13.87
2019-01-21T08:32:25.554Z,10.83
2019-01-21T08:35:22.155Z,13.07
2019-01-21T08:38:14.014Z,12.40
2019-01-21T08:41:18.314Z,11.20
2019-01-21T08:44:31.599Z,12.30
2019-01-21T08:47:25.774Z,10.10
2019-01-21T08:50:42.124Z,9.47
2019-01-21T08:53:50.043Z,11.37
2019-01-21T08:56:58.913Z,10.37
2019-01-21T08:59:52.693Z,11.73
2019-01-21T09:02:44.791Z,10.77
2019-01-21T09:05:45.090Z,10.40
2019-01-21T09:08:54.342Z,10.47
2019-01-21T09:11:38.887Z,10.20
2019-01-21T09:14:17.495Z,11.27
2019-01-21T09:17:25.545Z,10.47
2019-01-21T09:20:24.264Z,12.33
2019-01-21T09:23:22.287Z,9.97
2019-01-21T09:26:09.719Z,11.73
2019-01-21T09:29:26.939Z,12.63
2019-01-21T09:32:34.155Z,11.80
2019-01-21T09:35:38.255Z,9.93
2019-01-21T09:38:34.899Z,9.97
2019-01-21T09:41:57.351Z,11.40
2019-01-21T09:45:02.165Z,11.53
2019-01-21T09:47:29.585Z,10.13
2019-01-21T09:49:58.767Z,11.43
2019-01-21T09:52:28.403Z,10.93
2019-01-21T09:54:58.158Z,11.10
2019-01-21T09:57:27.590Z,10.07
2019-01-21T10:00:01.115Z,10.83
2019-01-21T10:02:39.263Z,11.93
2019-01-21T10:05:13.787Z,12.27
2019-01-21T10:07:58.347Z,11.00
2019-01-21T10:10:45.316Z,10.90
2019-01-21T10:13:41.683Z,12.30
2019-01-21T10:16:43.226Z,11.90
2019-01-21T10:19:59.578Z,10.57
2019-01-21T10:22:50.129Z,11.07
2019-01-21T10:25:24.795Z,12.13
2019-01-21T10:28:09.927Z,12.60
2019-01-21T10:31:05.788Z,12.00
2019-01-21T10:34:27.714Z,12.77
2019-01-21T10:37:28.614Z,12.80
2019-01-21T10:40:21.267Z,12.13
2019-01-21T10:43:29.011Z,11.50
2019-01-21T10:46:33.953Z,13.60
2019-01-21T10:49:24.145Z,13.23
2019-01-21T10:52:31.158Z,12.67
2019-01-21T10:55:24.214Z,12.97
2019-01-21T10:58:04.400Z,12.27
2019-01-21T11:01:03.732Z,13.10
2019-01-21T11:04:28.360Z,12.87
2019-01-21T11:07:46.611Z,13.20
2019-01-21T11:10:32.890Z,12.43
2019-01-21T11:13:40.198Z,12.43
2019-01-21T11:16:31.626Z,14.73
2019-01-21T11:19:44.115Z,12.77
2019-01-21T11:22:28.866Z,12.93
2019-01-21T11:25:41.689Z,12.70
2019-01-21T11:28:17.153Z,12.13
2019-01-21T11:31:29.810Z,14.20
2019-01-21T11:34:50.087Z,12.07
2019-01-21T11:37:52.286Z,14.73
2019-01-21T11:41:30.248Z,12.70
2019-01-21T11:44:22.098Z,12.63
2019-01-21T11:47:12.179Z,12.80
2019-01-21T11:50:00.230Z,13.87
2019-01-21T11:52:48.758Z,13.57
2019-01-21T11:55:56.527Z,15.17
2019-01-21T11:58:53.594Z,13.17
2019-01-21T12:01:37.170Z,13.07
2019-01-21T12:04:27.530Z,14.63
2019-01-21T12:07:11.690Z,13.43
2019-01-21T12:10:11.819Z,13.30
2019-01-21T12:13:04.203Z,15.13
2019-01-21T12:16:10.187Z,12.10
2019-01-21T12:19:12.889Z,13.80
2019-01-21T12:22:28.151Z,12.47
2019-01-21T12:25:02.659Z,14.57
2019-01-21T12:28:21.774Z,13.40
2019-01-21T12:31:21.374Z,13.53
2019-01-21T12:33:56.927Z,14.27
2019-01-21T12:36:37.799Z,13.60
2019-01-21T12:39:32.139Z,12.93
2019-01-21T12:42:29.360Z,13.93
2019-01-21T12:45:27.932Z,13.33
2019-01-21T12:48:41.063Z,12.17
2019-01-21T12:51:50.062Z,14.27
2019-01-21T12:55:05.874Z,13.43
2019-01-21T12:58:06.818Z,13.80
2019-01-21T13:00:50.794Z,11.83
2019-01-21T13:04:00.110Z,13.70
2019-01-21T13:06:57.890Z,15.43
2019-01-21T13:09:51.946Z,13.73
2019-01-21T13:12:57.184Z,13.23
2019-01-21T13:15:50.563Z,12.00
2019-01-21T13:18:43.589Z,11.87
2019-01-21T13:21:36.070Z,13.70
2019-01-21T13:24:18.532Z,12.80
2019-01-21T13:27:08.411Z,11.60
2019-01-21T13:29:52.080Z,11.20
2019-01-21T13:32:58.584Z,11.20
2019-01-21T13:35:54.071Z,11.83
2019-01-21T13:39:01.291Z,11.07
2019-01-21T13:42:03.533Z,12.70
2019-01-21T13:45:08.511Z,12.23
2019-01-21T13:47:55.154Z,11.57
2019-01-21T13:50:52.249Z,11.03
2019-01-21T13:54:01.083Z,13.67
2019-01-21T13:57:05.590Z,12.23
2019-01-21T14:00:09.020Z,10.50
2019-01-21T14:03:11.984Z,12.73
2019-01-21T14:06:04.650Z,11.53
2019-01-21T14:09:09.482Z,12.13
2019-01-21T14:12:03.288Z,12.77
2019-01-21T14:14:54.905Z,12.53
2019-01-21T14:17:37.911Z,13.10
2019-01-21T14:20:19.395Z,14.27
2019-01-21T14:23:13.866Z,11.10
2019-01-21T14:26:07.145Z,13.43
2019-01-21T14:29:08.553Z,12.87
2019-01-21T14:32:30.102Z,12.87
2019-01-21T14:35:51.975Z,11.97
2019-01-21T14:38:46.037Z,12.17
2019-01-21T14:41:34.876Z,11.67
2019-01-21T14:44:32.238Z,12.03
2019-01-21T14:47:27.884Z,10.23
2019-01-21T14:50:33.563Z,11.83
2019-01-21T14:53:55.562Z,12.43
2019-01-21T14:56:56.605Z,11.63
2019-01-21T15:00:01.776Z,12.63
2019-01-21T15:03:00.769Z,11.53
2019-01-21T15:05:55.419Z,11.47
2019-01-21T15:08:49.231Z,11.40
2019-01-21T15:12:02.138Z,10.53
2019-01-21T15:15:27.403Z,11.03
2019-01-21T15:18:23.028Z,10.77
2019-01-21T15:21:06.927Z,10.47
2019-01-21T15:24:32.131Z,10.47
2019-01-21T15:27:27.559Z,10.83
2019-01-21T15:30:10.964Z,11.83
2019-01-21T15:33:30.093Z,11.00
2019-01-21T15:36:47.336Z,10.77
2019-01-21T15:39:25.107Z,12.87
2019-01-21T15:42:33.828Z,12.33
2019-01-21T15:45:35.188Z,10.70
2019-01-21T15:48:53.379Z,11.23
2019-01-21T15:51:57.822Z,12.17
2019-01-21T15:54:51.765Z,11.33
2019-01-21T15:57:48.207Z,11.67
2019-01-21T16:00:50.630Z,13.43
2019-01-21T16:03:49.737Z,11.60
2019-01-21T16:06:43.202Z,10.10
2019-01-21T16:09:46.601Z,13.13
2019-01-21T16:13:09.086Z,11.17
2019-01-21T16:16:19.368Z,12.30
2019-01-21T16:18:52.796Z,12.67
2019-01-21T16:21:56.127Z,12.70
2019-01-21T16:24:56.107Z,12.63
2019-01-21T16:27:41.101Z,11.50
2019-01-21T16:30:50.265Z,11.93
2019-01-21T16:33:50.029Z,11.70
2019-01-21T16:36:40.112Z,12.30
2019-01-21T16:39:59.431Z,13.23
2019-01-21T16:42:26.998Z,12.13
2019-01-21T16:44:55.739Z,11.03
2019-01-21T16:47:24.766Z,13.03
2019-01-21T16:49:53.528Z,12.10
2019-01-21T16:52:22.164Z,13.87
2019-01-21T16:54:50.887Z,13.27
2019-01-21T16:57:20.053Z,11.57
2019-01-21T16:59:48.818Z,12.83
2019-01-21T17:02:18.146Z,12.97
2019-01-21T17:04:47.229Z,13.70
2019-01-21T17:07:15.936Z,11.37
2019-01-21T17:09:44.724Z,13.20
2019-01-21T17:12:13.463Z,13.97
2019-01-21T17:14:42.365Z,12.03
2019-01-21T17:19:41.895Z,14.17
2019-01-21T17:22:13.483Z,12.17
2019-01-21T17:24:43.569Z,12.90
2019-01-21T17:27:12.638Z,14.37
2019-01-21T17:29:41.315Z,14.47
2019-01-21T17:32:11.710Z,13.93
2019-01-21T17:34:40.450Z,12.63
2019-01-21T17:37:09.082Z,11.70
2019-01-21T17:39:37.909Z,14.10
2019-01-21T17:42:21.639Z,13.33
2019-01-21T17:44:42.753Z,14.67
2019-01-21T17:47:12.966Z,16.10
2019-01-21T17:49:42.150Z,14.20
2019-01-21T17:52:10.891Z,11.17
2019-01-21T17:54:41.419Z,14.83
2019-01-21T17:57:10.167Z,15.40
2019-01-21T17:59:40.024Z,14.37
2019-01-21T18:02:08.818Z,15.17
2019-01-21T18:04:37.790Z,11.70
2019-01-21T18:07:06.656Z,13.10
2019-01-21T18:09:37.102Z,15.33
2019-01-21T18:12:05.817Z,14.70
2019-01-21T18:14:34.806Z,15.43
2019-01-21T18:17:03.761Z,17.87
2019-01-21T18:22:31.806Z,14.93
2019-01-21T18:25:00.750Z,13.67
2019-01-21T18:27:29.898Z,15.10
2019-01-21T18:29:59.378Z,14.30
2019-01-21T18:32:28.218Z,14.83
2019-01-21T18:34:56.973Z,15.00
2019-01-21T18:37:26.132Z,16.40
2019-01-21T18:39:56.071Z,16.10
2019-01-21T18:42:24.819Z,15.97
2019-01-21T18:44:53.620Z,17.63
2019-01-21T18:47:22.419Z,14.37
2019-01-21T18:49:51.369Z,15.97
2019-01-21T18:52:20.653Z,14.87
2019-01-21T18:54:49.568Z,13.13
2019-01-21T18:57:18.282Z,14.67
2019-01-21T18:59:47.036Z,16.03
2019-01-21T19:02:15.773Z,18.07
2019-01-21T19:04:44.444Z,16.87
2019-01-21T19:07:13.242Z,14.20
2019-01-21T19:09:42.257Z,16.30
2019-01-21T19:12:11.230Z,15.83
2019-01-21T19:14:39.906Z,15.23
2019-01-21T19:17:09.066Z,13.93
2019-01-21T19:19:37.819Z,16.57
2019-01-21T19:22:06.666Z,14.90
2019-01-21T19:24:35.774Z,15.97
2019-01-21T19:27:04.560Z,13.80
2019-01-21T19:29:33.386Z,14.83
2019-01-21T19:32:02.291Z,15.67
2019-01-21T19:34:31.486Z,14.23
2019-01-21T19:37:00.530Z,16.57
2019-01-21T19:39:29.227Z,12.80
2019-01-21T19:41:58.239Z,13.53
2019-01-21T19:44:27.238Z,14.97
2019-01-21T19:46:56.071Z,14.57
2019-01-21T19:49:24.787Z,14.90
2019-01-21T19:51:53.586Z,15.87
2019-01-21T19:54:22.318Z,15.40
2019-01-21T19:56:51.179Z,12.93
2019-01-21T19:59:19.923Z,15.83
2019-01-21T20:01:48.642Z,16.83
2019-01-21T20:04:17.789Z,15.00
2019-01-21T20:06:46.618Z,18.30
2019-01-21T20:09:15.397Z,15.47
2019-01-21T20:11:44.217Z,14.97
2019-01-21T20:14:13.043Z,16.37
2019-01-21T20:16:42.141Z,16.57
2019-01-21T20:19:11.242Z,16.20
2019-01-21T20:21:39.902Z,17.57
2019-01-21T20:24:09.512Z,17.03
2019-01-21T20:26:38.624Z,16.40
2019-01-21T20:29:07.642Z,16.23
2019-01-21T20:31:36.680Z,15.23
2019-01-21T20:34:05.567Z,15.90
2019-01-21T20:36:34.588Z,16.53
2019-01-21T20:39:05.058Z,15.57
2019-01-21T20:41:34.209Z,15.93
2019-01-21T20:44:02.897Z,16.77
2019-01-21T20:46:31.586Z,17.97
2019-01-21T20:49:00.723Z,15.73
2019-01-21T20:51:29.450Z,15.73
2019-01-21T20:53:58.507Z,17.27
2019-01-21T20:56:27.660Z,17.67
2019-01-21T20:58:57.331Z,17.73
2019-01-21T21:01:26.624Z,15.70
2019-01-21T21:03:55.390Z,18.50
2019-01-21T21:06:24.550Z,15.33
2019-01-21T21:08:53.279Z,16.30
2019-01-21T21:11:22.043Z,15.70
2019-01-21T21:13:50.826Z,14.83
2019-01-21T21:16:20.042Z,17.87
2019-01-21T21:18:48.817Z,17.10
2019-01-21T21:21:17.579Z,16.60
2019-01-21T21:23:46.592Z,16.00
2019-01-21T21:26:15.607Z,17.00
2019-01-21T21:28:44.994Z,16.67
2019-01-21T21:31:13.728Z,16.07
2019-01-21T21:33:43.181Z,18.43
2019-01-21T21:36:12.211Z,17.73
2019-01-21T21:38:41.107Z,17.33
2019-01-21T21:41:09.983Z,15.67
2019-01-21T21:43:38.746Z,17.07
2019-01-21T21:46:07.579Z,15.47
2019-01-21T21:48:36.655Z,18.23
2019-01-21T21:51:05.486Z,17.73
2019-01-21T21:53:34.724Z,18.07
2019-01-21T21:57:15.507Z,17.47
2019-01-21T21:59:44.498Z,16.57
2019-01-21T22:02:13.226Z,18.03
2019-01-21T22:04:42.130Z,16.77
2019-01-21T22:07:11.298Z,17.93
2019-01-21T22:09:40.231Z,16.53
2019-01-21T22:12:08.974Z,18.57
2019-01-21T22:14:37.786Z,18.17
2019-01-21T22:17:06.502Z,16.73
2019-01-21T22:19:35.547Z,15.37
2019-01-21T22:22:04.408Z,14.13
2019-01-21T22:24:33.395Z,16.73
2019-01-21T22:27:02.422Z,18.47
2019-01-21T22:29:31.487Z,16.50
2019-01-21T22:32:00.167Z,15.93
2019-01-21T22:34:28.921Z,16.10
2019-01-21T22:36:57.779Z,16.07
2019-01-21T22:39:26.506Z,17.80
2019-01-21T22:41:55.242Z,18.03
2019-01-21T22:44:24.027Z,18.00
2019-01-21T22:46:53.238Z,16.07
2019-01-21T22:49:21.968Z,19.47
2019-01-21T22:51:50.849Z,17.03
2019-01-21T22:54:19.643Z,16.67
2019-01-21T22:56:48.436Z,18.27
2019-01-21T22:59:17.546Z,17.50
2019-01-21T23:01:46.433Z,18.70
2019-01-21T23:04:15.165Z,17.23
2019-01-21T23:06:44.042Z,17.80
2019-01-21T23:09:12.874Z,15.97
2019-01-21T23:11:41.511Z,16.23
2019-01-21T23:14:10.371Z,15.03
2019-01-21T23:16:39.180Z,16.20
2019-01-21T23:19:07.839Z,17.07
2019-01-21T23:21:38.498Z,18.33
2019-01-21T23:24:07.719Z,17.00
2019-01-21T23:26:36.703Z,17.43
2019-01-21T23:29:05.594Z,19.57
2019-01-21T23:31:34.401Z,16.67
2019-01-21T23:34:22.423Z,17.50
2019-01-21T23:36:51.139Z,15.37
2019-01-21T23:39:19.808Z,15.23
2019-01-21T23:41:49.011Z,17.53
2019-01-21T23:44:17.713Z,14.40
2019-01-21T23:46:46.462Z,17.70
2019-01-21T23:49:15.530Z,15.67
2019-01-21T23:51:44.389Z,15.30
2019-01-21T23:54:13.130Z,16.30
2019-01-21T23:56:41.843Z,15.47
2019-01-21T23:59:10.626Z,15.97
